Time;durP1;ratioP1;P1;durP2;ratioP2;P2;SDS_P1;SDS_P2;PMS_P1;PMS_P2;Temp;Humidity;BMP_temperature;BMP_pressure;BME280_temperature;BME280_humidity;BME280_pressure;Samples;Min_cycle;Max_cycle;Signal;HPM_P1;HPM_P2
2021/11/19 00:58:43;;;;;;;7.95;6.05;;;;;;;7.45;78.89;101729.72;4996209;28;20046;-91
2021/11/19 01:01:14;;;;;;;10.55;7.15;;;;;;;7.44;78.37;101734.06;4979327;28;20030;-90
2021/11/19 01:03:40;;;;;;;9.82;6.90;;;;;;;7.42;78.64;101727.94;4979738;28;20383;-91
2021/11/19 01:06:05;;;;;;;7.13;5.88;;;;;;;7.45;78.31;101724.47;4979548;28;20113;-90
2021/11/19 01:08:31;;;;;;;6.68;5.78;;;;;;;7.48;78.53;101728.91;4996217;28;20022;-90
2021/11/19 01:10:59;;;;;;;9.43;6.35;;;;;;;7.46;78.47;101723.59;4995852;28;20030;-91
2021/11/19 01:13:26;;;;;;;9.50;6.05;;;;;;;7.49;78.49;101717.53;4995217;28;20037;-90
2021/11/19 01:15:57;;;;;;;12.20;6.85;;;;;;;7.48;78.43;101716.66;4994319;28;20022;-91
2021/11/19 01:18:36;;;;;;;10.98;5.88;;;;;;;7.51;78.55;101723.72;4979788;28;20113;-90
2021/11/19 01:21:13;;;;;;;8.73;6.07;;;;;;;7.51;78.39;101718.47;4977579;28;20041;-90
2021/11/19 01:23:39;;;;;;;7.70;5.65;;;;;;;7.51;78.39;101724.63;4992638;28;20109;-90
2021/11/19 01:26:07;;;;;;;9.40;6.60;;;;;;;7.48;78.36;101718.41;4992360;28;20476;-91
2021/11/19 01:28:33;;;;;;;7.63;5.82;;;;;;;7.52;78.33;101726.38;4992315;28;20041;-90
2021/11/19 01:31:27;;;;;;;12.25;6.47;;;;;;;7.53;78.42;101728.13;4992461;28;20030;-90
2021/11/19 01:33:52;;;;;;;9.57;6.03;;;;;;;7.50;78.48;101721.94;4969962;28;20081;-90
2021/11/19 01:36:19;;;;;;;12.68;6.65;;;;;;;7.53;78.54;101738.63;4975413;28;20030;-90
2021/11/19 01:38:45;;;;;;;7.63;6.80;;;;;;;7.52;78.42;101731.63;4992903;28;20173;-91
2021/11/19 01:41:13;;;;;;;9.55;6.20;;;;;;;7.53;78.70;101732.50;4992549;28;20464;-91
2021/11/19 01:43:40;;;;;;;9.95;6.47;;;;;;;7.54;78.63;101735.16;4992606;28;20026;-91
2021/11/19 01:46:09;;;;;;;9.65;6.63;;;;;;;7.52;78.72;101729.00;4993759;28;20026;-91
2021/11/19 01:48:40;;;;;;;8.77;5.70;;;;;;;7.53;78.47;101725.50;4977391;28;20514;-91
2021/11/19 01:51:51;;;;;;;8.93;6.63;;;;;;;7.55;78.77;101731.69;4992832;28;20026;-91
2021/11/19 01:54:20;;;;;;;7.60;6.63;;;;;;;7.54;78.67;101729.91;4986995;28;20026;-91
2021/11/19 01:56:57;;;;;;;12.52;7.60;;;;;;;7.54;78.68;101740.41;4992014;28;20023;-92
2021/11/19 01:59:25;;;;;;;10.27;5.70;;;;;;;7.55;78.50;101731.69;4991837;28;20041;-92
2021/11/19 02:01:58;;;;;;;7.25;5.60;;;;;;;7.57;78.51;101736.97;4991403;28;20065;-91
2021/11/19 02:04:30;;;;;;;8.43;6.07;;;;;;;7.55;78.78;101731.69;4975654;28;20022;-91
2021/11/19 02:07:03;;;;;;;10.65;5.85;;;;;;;7.55;78.53;101736.03;4992149;28;20065;-91
2021/11/19 02:09:40;;;;;;;10.38;6.38;;;;;;;7.56;78.58;101738.72;4975475;28;20026;-91
2021/11/19 02:12:28;;;;;;;9.38;6.38;;;;;;;7.55;78.58;101734.31;4982576;28;20026;-91
2021/11/19 02:15:07;;;;;;;7.68;6.35;;;;;;;7.58;78.63;101733.50;4972061;28;20110;-91
2021/11/19 02:17:32;;;;;;;12.35;6.68;;;;;;;7.56;78.62;101745.69;4956205;28;20023;-91
2021/11/19 02:20:03;;;;;;;9.95;6.65;;;;;;;7.57;78.50;101740.47;4971697;28;20022;-92
2021/11/19 02:22:36;;;;;;;10.60;7.28;;;;;;;7.54;78.78;101734.28;4991465;28;20062;-91
2021/11/19 02:25:13;;;;;;;8.10;6.15;;;;;;;7.58;78.61;101744.00;4992183;28;20403;-91
2021/11/19 02:27:43;;;;;;;8.48;6.45;;;;;;;7.54;78.33;101737.78;4979117;28;20022;-91
2021/11/19 02:30:12;;;;;;;9.25;5.88;;;;;;;7.58;78.72;101739.59;4995321;28;20023;-91
2021/11/19 02:32:41;;;;;;;12.98;6.35;;;;;;;7.58;78.58;101742.22;4978826;28;20077;-92
2021/11/19 02:35:11;;;;;;;9.90;6.63;;;;;;;7.56;78.55;101738.72;4979141;28;20514;-92
2021/11/19 02:37:40;;;;;;;11.20;6.55;;;;;;;7.60;78.73;101755.41;4978923;28;20026;-91
2021/11/19 02:40:13;;;;;;;11.88;7.55;;;;;;;7.59;78.71;101740.50;4995426;28;20022;-91
2021/11/19 02:42:44;;;;;;;8.85;6.57;;;;;;;7.58;78.45;101747.47;4994897;28;20395;-91
2021/11/19 02:45:20;;;;;;;8.73;6.68;;;;;;;7.57;78.79;101740.47;4995623;28;20049;-91
2021/11/19 02:47:45;;;;;;;8.75;6.22;;;;;;;7.56;78.67;101743.97;4978795;28;20033;-91
2021/11/19 02:50:11;;;;;;;7.05;5.60;;;;;;;7.57;78.49;101740.47;4995232;28;20026;-91
2021/11/19 02:52:43;;;;;;;9.85;6.32;;;;;;;7.61;78.85;101751.03;4995114;28;20077;-91
2021/11/19 02:55:13;;;;;;;12.10;6.22;;;;;;;7.61;78.57;101751.03;4979483;28;20030;-91
2021/11/19 02:57:39;;;;;;;7.68;6.68;;;;;;;7.61;78.57;101751.03;4980379;28;20559;-91
2021/11/19 03:00:09;;;;;;;9.70;6.32;;;;;;;7.61;78.58;101743.16;4995748;28;20100;-91
2021/11/19 03:02:35;;;;;;;8.45;6.18;;;;;;;7.58;78.66;101747.47;4978673;28;20030;-91
2021/11/19 03:05:10;;;;;;;10.02;6.18;;;;;;;7.62;78.83;101737.06;4978255;28;20464;-91
2021/11/19 03:07:35;;;;;;;12.25;7.10;;;;;;;7.60;78.74;101741.41;4994364;28;20037;-92
2021/11/19 03:10:06;;;;;;;7.20;6.20;;;;;;;7.62;78.73;101737.06;4994593;28;20026;-92
2021/11/19 03:12:32;;;;;;;;;;;;;;;7.61;78.98;101722.16;4994608;28;20049;-91
2021/11/19 03:14:59;;;;;;;9.60;6.38;;;;;;;7.62;78.81;101723.91;4994673;28;20257;-91
2021/11/19 03:17:26;;;;;;;11.27;5.88;;;;;;;7.61;78.65;101724.78;4994396;28;20117;-91
2021/11/19 03:19:52;;;;;;;9.98;7.60;;;;;;;7.61;78.79;101724.78;4994543;28;20118;-91
2021/11/19 03:22:20;;;;;;;7.63;6.13;;;;;;;7.64;78.83;101727.47;4994499;28;20033;-91
2021/11/19 03:24:46;;;;;;;8.23;6.57;;;;;;;7.63;78.76;101717.81;4994336;28;20385;-91
2021/11/19 03:27:13;;;;;;;8.95;5.65;;;;;;;7.60;78.94;101717.78;4994040;28;20378;-90
2021/11/19 03:29:44;;;;;;;10.48;6.93;;;;;;;7.62;78.83;101727.44;4994243;28;20018;-91
2021/11/19 03:32:12;;;;;;;8.93;6.37;;;;;;;7.58;78.87;101729.09;4994100;28;20019;-91
2021/11/19 03:34:38;;;;;;;8.23;6.70;;;;;;;7.64;79.01;101741.47;4993980;28;20313;-91
2021/11/19 03:37:04;;;;;;;8.70;6.30;;;;;;;7.64;78.84;101740.59;4980308;28;20112;-91
2021/11/19 03:39:31;;;;;;;11.50;6.68;;;;;;;7.63;79.11;101741.44;4974645;28;20484;-91
2021/11/19 03:41:57;;;;;;;9.85;6.65;;;;;;;7.63;78.88;101738.81;4958110;28;20113;-91
2021/11/19 03:44:30;;;;;;;9.02;6.50;;;;;;;7.65;78.94;101737.13;4958495;28;20033;-91
2021/11/19 03:47:09;;;;;;;8.20;6.75;;;;;;;7.65;78.92;101734.50;4958945;28;20034;-92
2021/11/19 03:49:35;;;;;;;10.98;6.70;;;;;;;7.66;78.80;101731.00;4958545;28;20425;-91
2021/11/19 03:52:09;;;;;;;8.10;6.35;;;;;;;7.64;79.01;101722.22;4958357;28;20023;-91
2021/11/19 03:54:36;;;;;;;9.93;6.53;;;;;;;7.66;78.99;101728.38;4974290;28;20113;-92
2021/11/19 03:57:03;;;;;;;11.18;6.85;;;;;;;7.66;78.88;101728.38;4974314;28;20113;-92
2021/11/19 03:59:28;;;;;;;9.20;7.25;;;;;;;7.65;78.68;101726.63;4973990;28;20030;-91
2021/11/19 04:01:55;;;;;;;10.63;5.97;;;;;;;7.67;79.02;101732.78;4958156;28;20460;-92
2021/11/19 04:04:22;;;;;;;8.20;6.45;;;;;;;7.66;79.25;101729.28;4974189;28;20061;-91
2021/11/19 04:06:48;;;;;;;9.70;6.50;;;;;;;7.67;79.12;101735.44;4958155;28;20042;-92
2021/11/19 04:09:14;;;;;;;9.30;6.85;;;;;;;7.68;79.06;101726.69;4974528;28;20026;-91
2021/11/19 04:11:40;;;;;;;8.23;6.47;;;;;;;7.68;79.34;101734.56;4974107;28;20110;-91
2021/11/19 04:14:06;;;;;;;9.27;7.15;;;;;;;7.65;79.28;101732.75;4957947;28;20038;-91
2021/11/19 04:16:38;;;;;;;9.40;6.50;;;;;;;7.67;79.34;101741.53;4957840;28;20023;-91
2021/11/19 04:19:06;;;;;;;8.52;6.28;;;;;;;7.70;79.26;101745.97;4957829;28;20094;-91
2021/11/19 04:21:31;;;;;;;10.93;6.88;;;;;;;7.65;79.17;101742.38;4981265;28;20022;-91
2021/11/19 04:23:57;;;;;;;9.75;6.63;;;;;;;7.68;79.48;101740.69;4977037;28;20026;-91
2021/11/19 04:26:31;;;;;;;8.57;5.85;;;;;;;7.66;79.42;101729.28;4982382;28;20117;-92
2021/11/19 04:28:57;;;;;;;9.45;6.68;;;;;;;7.67;79.71;101736.28;4993088;28;20022;-91
2021/11/19 04:31:24;;;;;;;7.20;6.43;;;;;;;7.70;79.45;101744.22;4993078;28;20029;-92
2021/11/19 04:33:50;;;;;;;9.45;6.68;;;;;;;7.69;79.63;101723.19;4976901;28;20034;-92
2021/11/19 04:36:16;;;;;;;7.00;6.28;;;;;;;7.67;79.38;101725.78;4976857;28;20026;-92
2021/11/19 04:38:42;;;;;;;9.18;6.13;;;;;;;7.67;79.39;101720.53;4992515;28;20025;-91
2021/11/19 04:41:42;;;;;;;8.93;6.82;;;;;;;7.71;79.80;101721.50;4989884;28;20084;-92
2021/11/19 04:44:13;;;;;;;7.53;6.32;;;;;;;7.70;80.04;101715.34;4992723;28;20116;-92
2021/11/19 04:46:39;;;;;;;7.55;6.50;;;;;;;7.71;79.98;101721.50;4975528;28;20030;-92
2021/11/19 04:49:04;;;;;;;7.82;6.55;;;;;;;7.68;79.89;101721.44;4993089;28;20030;-93
2021/11/19 04:51:34;;;;;;;6.78;6.07;;;;;;;7.69;79.96;101713.59;4992864;28;20014;-91
2021/11/19 04:54:00;;;;;;;7.95;5.65;;;;;;;7.71;79.61;101721.50;4992489;28;20018;-92
2021/11/19 04:56:25;;;;;;;9.15;6.95;;;;;;;7.67;79.92;101722.28;4977067;28;20041;-92
2021/11/19 04:58:51;;;;;;;7.80;5.93;;;;;;;7.73;79.84;101732.91;4992641;28;20417;-92
2021/11/19 05:01:20;;;;;;;8.60;6.35;;;;;;;7.72;79.89;101731.13;4992521;28;20033;-93
2021/11/19 05:03:45;;;;;;;10.25;6.32;;;;;;;7.67;80.00;101719.66;4992605;28;20141;-92
2021/11/19 05:06:12;;;;;;;8.30;6.45;;;;;;;7.74;80.08;101739.91;4992401;28;20105;-92
2021/11/19 05:08:37;;;;;;;9.10;6.32;;;;;;;7.67;79.86;101719.66;4992509;28;20093;-92
2021/11/19 05:11:05;;;;;;;9.20;7.05;;;;;;;7.75;80.30;101735.56;4976108;28;20114;-92
2021/11/19 05:13:32;;;;;;;11.02;7.20;;;;;;;7.74;80.00;101739.06;4987455;28;20388;-92
2021/11/19 05:15:59;;;;;;;10.50;7.32;;;;;;;7.74;80.03;101739.06;4976429;28;20032;-92
2021/11/19 05:18:26;;;;;;;8.57;6.50;;;;;;;7.68;80.21;101737.19;4993018;28;20037;-93
2021/11/19 05:20:52;;;;;;;7.93;6.82;;;;;;;7.75;79.99;101744.34;4993411;28;20037;-93
2021/11/19 05:23:18;;;;;;;8.40;6.53;;;;;;;7.75;80.02;101744.34;4976130;28;20033;-93
2021/11/19 05:25:44;;;;;;;8.05;6.57;;;;;;;7.73;80.02;101746.03;4988563;28;20026;-91
2021/11/19 05:28:12;;;;;;;9.15;6.60;;;;;;;7.73;80.06;101742.53;4959363;28;20022;-93
2021/11/19 05:30:39;;;;;;;8.63;6.38;;;;;;;7.76;80.07;101748.72;4968792;28;20500;-93
2021/11/19 05:33:06;;;;;;;8.75;6.43;;;;;;;7.74;79.93;101739.91;4978827;28;20033;-93
2021/11/19 05:35:33;;;;;;;9.35;7.15;;;;;;;7.74;79.80;101745.16;4976259;28;20064;-92
2021/11/19 05:37:58;;;;;;;9.63;6.68;;;;;;;7.76;79.88;101746.09;4992569;28;20030;-93
2021/11/19 05:40:24;;;;;;;9.10;6.30;;;;;;;7.76;79.95;101746.09;4992370;28;20033;-93
2021/11/19 05:42:51;;;;;;;8.27;6.20;;;;;;;7.73;79.78;101740.78;4992570;28;20036;-93
2021/11/19 05:45:18;;;;;;;8.00;5.63;;;;;;;7.73;79.96;101735.53;4976483;28;20054;-93
2021/11/19 05:47:43;;;;;;;11.20;6.55;;;;;;;7.77;79.88;101742.59;4976266;28;20023;-93
2021/11/19 05:50:10;;;;;;;7.85;6.40;;;;;;;7.77;79.80;101742.59;4976184;28;20092;-93
2021/11/19 05:52:36;;;;;;;7.72;5.85;;;;;;;7.76;80.03;101746.09;4992471;28;20373;-93
2021/11/19 05:55:05;;;;;;;7.40;5.55;;;;;;;7.73;80.01;101743.41;4992209;28;20029;-93
2021/11/19 05:58:37;;;;;;;9.00;6.30;;;;;;;7.78;79.92;101754.91;4976212;28;20404;-93
2021/11/19 06:01:08;;;;;;;8.43;6.00;;;;;;;7.76;79.87;101746.09;4994295;28;20032;-92
2021/11/19 06:03:33;;;;;;;9.85;7.30;;;;;;;7.68;80.21;101748.56;4986080;28;20447;-94
2021/11/19 06:05:59;;;;;;;8.18;6.38;;;;;;;7.78;79.80;101757.53;4982725;28;20033;-93
2021/11/19 06:08:24;;;;;;;7.35;6.28;;;;;;;7.74;79.76;101755.66;4999696;28;20022;-93
2021/11/19 06:10:57;;;;;;;6.72;5.32;;;;;;;7.75;80.02;101765.34;4984117;28;20022;-94
2021/11/19 06:13:26;;;;;;;8.93;6.45;;;;;;;7.78;79.84;101770.66;4982114;28;20033;-93
2021/11/19 06:16:01;;;;;;;9.25;6.45;;;;;;;7.78;79.71;101765.41;4980139;28;20540;-93
2021/11/19 06:18:31;;;;;;;9.07;6.07;;;;;;;7.75;79.96;101764.44;4996246;28;20026;-92
2021/11/19 06:21:00;;;;;;;8.77;5.43;;;;;;;7.70;79.59;101757.38;4996583;28;20065;-92
2021/11/19 06:23:31;;;;;;;8.20;6.03;;;;;;;7.80;79.75;101774.19;4980009;28;20464;-93
2021/11/19 06:25:56;;;;;;;7.82;5.88;;;;;;;7.73;79.87;101761.78;4998828;28;20006;-93
2021/11/19 06:28:25;;;;;;;7.70;5.82;;;;;;;7.75;79.63;101764.44;4980437;28;20037;-93
2021/11/19 06:30:51;;;;;;;9.32;6.70;;;;;;;7.77;79.55;101770.63;4979752;28;20084;-93
2021/11/19 06:33:19;;;;;;;7.68;6.13;;;;;;;7.78;79.65;101778.53;4995375;28;20500;-93
2021/11/19 06:35:44;;;;;;;8.32;6.22;;;;;;;7.73;79.70;101767.03;4979403;28;20103;-92
2021/11/19 06:38:12;;;;;;;7.07;5.57;;;;;;;7.78;79.86;101778.53;4979241;28;20026;-92
2021/11/19 06:40:37;;;;;;;6.93;5.63;;;;;;;7.77;79.68;101779.38;4996160;28;20050;-93
2021/11/19 06:43:04;;;;;;;9.18;6.63;;;;;;;7.77;79.49;101776.75;4995996;28;20062;-93
2021/11/19 06:45:30;;;;;;;9.45;7.03;;;;;;;7.70;79.64;101762.63;4996105;28;20029;-94
2021/11/19 06:47:56;;;;;;;9.10;6.18;;;;;;;7.68;79.67;101766.06;4979432;28;20027;-93
2021/11/19 06:50:24;;;;;;;7.30;6.40;;;;;;;7.77;79.52;101774.13;4979616;28;20072;-93
2021/11/19 06:52:50;;;;;;;8.63;6.45;;;;;;;7.69;79.65;101760.84;4979547;28;20022;-93
2021/11/19 06:55:15;;;;;;;10.13;6.20;;;;;;;7.71;79.69;101768.75;4979652;28;20038;-93
2021/11/19 06:57:42;;;;;;;8.82;6.10;;;;;;;7.77;79.73;101774.13;4979543;28;20085;-93
2021/11/19 07:00:12;;;;;;;10.20;6.85;;;;;;;7.75;79.74;101775.84;4979254;28;20034;-94
2021/11/19 07:02:37;;;;;;;8.07;6.60;;;;;;;7.70;79.59;101761.72;4979433;28;20506;-93
2021/11/19 07:05:04;;;;;;;8.02;6.68;;;;;;;7.75;79.67;101773.22;4979289;28;20053;-93
2021/11/19 07:07:30;;;;;;;9.13;6.75;;;;;;;7.79;79.77;101790.81;4995987;28;20037;-93
2021/11/19 07:09:55;;;;;;;9.70;6.13;;;;;;;7.74;79.59;101779.31;4979915;28;20026;-92
2021/11/19 07:12:21;;;;;;;10.82;7.30;;;;;;;7.84;79.98;101798.78;4978480;28;20019;-93
2021/11/19 07:14:46;;;;;;;9.00;6.68;;;;;;;7.76;79.76;101788.13;4995427;28;20036;-93
2021/11/19 07:17:11;;;;;;;8.82;7.18;;;;;;;7.80;79.88;101800.47;4979443;28;20026;-94
2021/11/19 07:19:39;;;;;;;10.90;7.13;;;;;;;7.73;79.71;101788.06;4995776;28;20030;-94
2021/11/19 07:22:16;;;;;;;10.05;6.85;;;;;;;7.83;79.94;101813.66;4997666;28;20477;-93
2021/11/19 07:24:41;;;;;;;8.07;6.63;;;;;;;7.81;79.86;101807.47;4995188;28;20022;-93
2021/11/19 07:27:08;;;;;;;9.60;6.53;;;;;;;7.72;79.91;101796.78;4979258;28;20089;-93
2021/11/19 07:29:34;;;;;;;10.25;7.13;;;;;;;7.79;80.00;101808.31;4996108;28;20030;-93
2021/11/19 07:32:01;;;;;;;9.95;7.45;;;;;;;7.79;79.97;101806.56;5012895;28;20025;-93
2021/11/19 07:34:26;;;;;;;9.77;7.57;;;;;;;7.73;80.13;101798.56;4979639;28;20497;-93
2021/11/19 07:36:52;;;;;;;10.93;7.55;;;;;;;7.85;80.25;101816.31;4995777;28;20046;-94
2021/11/19 07:39:17;;;;;;;9.52;7.50;;;;;;;7.79;80.06;101810.94;4996594;28;20370;-93
2021/11/19 07:41:43;;;;;;;8.93;6.68;;;;;;;7.80;80.10;101810.97;4979546;28;20121;-94
2021/11/19 07:44:11;;;;;;;8.95;7.40;;;;;;;7.84;80.19;101822.44;4995607;28;20026;-94
2021/11/19 07:46:39;;;;;;;13.45;7.68;;;;;;;7.79;80.13;101813.56;4995289;28;20412;-93
2021/11/19 07:49:05;;;;;;;9.55;7.07;;;;;;;7.81;80.06;101817.97;4995058;28;20064;-93
2021/11/19 07:51:34;;;;;;;10.27;6.88;;;;;;;7.88;80.18;101829.53;4979202;28;20034;-93
2021/11/19 07:54:00;;;;;;;8.75;7.18;;;;;;;7.81;80.26;101804.84;4994693;28;20034;-93
2021/11/19 07:56:29;;;;;;;9.43;6.90;;;;;;;7.85;80.05;101807.53;4978227;28;20403;-93
2021/11/19 07:59:15;;;;;;;8.88;6.72;;;;;;;7.82;80.20;101803.13;4994110;28;20022;-93
2021/11/19 08:01:41;;;;;;;11.48;7.50;;;;;;;7.83;80.32;101811.03;4994387;28;20030;-93
2021/11/19 08:04:07;;;;;;;12.05;7.75;;;;;;;7.81;80.22;101812.72;4994047;28;20026;-93
2021/11/19 08:06:33;;;;;;;9.30;6.93;;;;;;;7.76;80.33;101797.72;4994203;28;20037;-93
2021/11/19 08:08:59;;;;;;;8.60;6.53;;;;;;;7.81;80.28;101811.84;4978122;28;20033;-93
2021/11/19 08:11:25;;;;;;;10.40;7.10;;;;;;;7.87;80.13;101819.84;4994338;28;20018;-93
2021/11/19 08:13:51;;;;;;;9.77;7.32;;;;;;;7.85;80.43;101812.78;4993792;28;20072;-93
2021/11/19 08:16:17;;;;;;;10.73;7.60;;;;;;;7.83;80.26;101820.63;4994055;28;20022;-90
2021/11/19 08:18:50;;;;;;;9.13;6.03;;;;;;;7.91;80.42;101826.06;4993887;28;20073;-93
2021/11/19 08:21:16;;;;;;;11.80;7.60;;;;;;;7.86;80.32;101820.72;4994312;28;20033;-92
2021/11/19 08:23:50;;;;;;;10.57;6.95;;;;;;;7.83;80.30;101821.53;4993244;28;20022;-93
2021/11/19 08:26:30;;;;;;;10.05;7.35;;;;;;;7.91;80.24;101833.94;4993743;28;20026;-93
2021/11/19 08:28:58;;;;;;;9.67;6.43;;;;;;;7.88;80.40;101818.13;4994448;28;20022;-92
2021/11/19 08:31:27;;;;;;;11.05;6.55;;;;;;;7.91;80.37;101826.94;4993541;28;20064;-93
2021/11/19 08:33:53;;;;;;;9.80;6.53;;;;;;;7.88;80.64;101823.38;4977155;28;20117;-92
2021/11/19 08:36:23;;;;;;;8.48;6.45;;;;;;;7.87;80.29;101822.47;4993220;28;20124;-92
2021/11/19 08:38:49;;;;;;;8.40;6.68;;;;;;;7.88;80.40;101823.38;4976995;28;20026;-92
2021/11/19 08:41:15;;;;;;;9.75;6.78;;;;;;;7.88;80.64;101820.75;4993141;28;20384;-92
2021/11/19 08:43:45;;;;;;;9.90;6.93;;;;;;;7.85;80.40;101820.69;4993237;28;20108;-92
2021/11/19 08:46:15;;;;;;;9.10;6.65;;;;;;;7.88;80.48;101832.16;4976982;28;20432;-93
2021/11/19 08:48:46;;;;;;;11.13;6.80;;;;;;;7.89;80.48;101830.38;4976907;28;20537;-92
2021/11/19 08:51:15;;;;;;;10.02;7.07;;;;;;;7.85;80.47;101828.56;4978093;28;20037;-93
2021/11/19 08:53:40;;;;;;;8.10;6.20;;;;;;;7.95;80.43;101841.03;4976681;28;20080;-92
2021/11/19 08:56:06;;;;;;;10.25;6.93;;;;;;;7.93;80.48;101841.00;4992797;28;20034;-92
2021/11/19 08:58:35;;;;;;;7.82;6.45;;;;;;;7.94;80.66;101841.91;4976910;28;20696;-92
2021/11/19 09:01:02;;;;;;;9.77;6.88;;;;;;;7.89;80.69;101840.91;4976487;28;20026;-92
2021/11/19 09:03:28;;;;;;;9.45;7.13;;;;;;;7.91;80.54;101836.56;4992939;28;20026;-92
2021/11/19 09:05:54;;;;;;;8.82;7.03;;;;;;;7.88;80.58;101829.53;4961142;28;20058;-92
2021/11/19 09:08:23;;;;;;;9.18;6.70;;;;;;;7.95;80.52;101838.41;4977444;28;20026;-92
2021/11/19 09:10:51;;;;;;;9.02;7.20;;;;;;;7.96;80.57;101837.53;4992538;28;20076;-92
2021/11/19 09:13:16;;;;;;;8.32;5.93;;;;;;;7.90;80.52;101832.19;4992441;28;20029;-92
2021/11/19 09:15:41;;;;;;;8.95;7.00;;;;;;;7.83;80.50;101823.28;4992837;28;20030;-91
2021/11/19 09:21:32;;;;;;;9.20;7.03;;;;;;;7.96;80.68;101842.81;4993940;28;20029;-92
2021/11/19 09:24:05;;;;;;;7.38;6.30;;;;;;;7.96;80.88;101840.16;4992433;28;20451;-92
2021/11/19 09:26:40;;;;;;;8.63;6.60;;;;;;;7.93;80.65;101843.63;4992370;28;20076;-92
2021/11/19 09:29:10;;;;;;;10.68;6.47;;;;;;;7.94;80.61;101839.28;4992147;28;20557;-92
2021/11/19 09:31:37;;;;;;;7.57;5.93;;;;;;;7.98;80.88;101845.47;4992526;28;20058;-93
2021/11/19 09:34:04;;;;;;;9.95;6.82;;;;;;;7.98;80.82;101845.47;4975893;28;20026;-92
2021/11/19 09:36:29;;;;;;;7.10;6.07;;;;;;;7.93;80.86;101832.22;4975305;28;20033;-93
2021/11/19 09:38:55;;;;;;;8.65;6.25;;;;;;;7.95;80.97;101835.78;4976467;28;20026;-92
2021/11/19 09:41:24;;;;;;;8.43;6.22;;;;;;;7.99;80.88;101847.22;4992236;28;20117;-92
2021/11/19 09:44:27;;;;;;;7.47;5.95;;;;;;;7.98;80.94;101842.84;5008678;28;20026;-94
2021/11/19 09:47:02;;;;;;;7.43;5.95;;;;;;;7.95;80.96;101834.06;4992926;28;20034;-92
2021/11/19 09:49:36;;;;;;;8.50;6.18;;;;;;;8.00;81.11;101838.50;5008554;28;20049;-92
2021/11/19 09:53:03;;;;;;;7.72;6.38;;;;;;;7.93;81.25;101829.59;4992266;28;20161;-92
2021/11/19 09:55:48;;;;;;;8.45;6.70;;;;;;;7.98;81.30;101835.84;4879593;29;20510;-91
2021/11/19 09:58:33;;;;;;;7.20;6.18;;;;;;;7.98;81.05;101835.84;4914425;29;20059;-91
2021/11/19 10:01:21;;;;;;;8.98;6.03;;;;;;;8.01;81.20;101838.53;4982364;28;20046;-92
2021/11/19 10:04:25;;;;;;;8.75;6.20;;;;;;;7.98;81.15;101835.84;4991939;28;20034;-91
2021/11/19 10:07:21;;;;;;;8.23;5.88;;;;;;;7.98;81.35;101824.44;4992170;28;20030;-91
2021/11/19 10:10:26;;;;;;;7.88;6.38;;;;;;;8.00;81.33;101828.88;4992606;28;20432;-91
2021/11/19 10:13:05;;;;;;;7.68;6.10;;;;;;;8.01;81.21;101825.41;4989527;28;20034;-91
2021/11/19 10:15:47;;;;;;;6.72;5.85;;;;;;;8.00;81.15;101828.00;4975935;28;20019;-91
2021/11/19 10:18:30;;;;;;;7.82;5.72;;;;;;;8.01;81.02;101837.66;4992543;28;20031;-91
2021/11/19 10:21:28;;;;;;;8.15;6.05;;;;;;;8.02;81.34;101837.69;4993198;28;20026;-91
2021/11/19 10:24:00;;;;;;;6.57;5.43;;;;;;;8.02;81.22;101835.06;4987162;28;20027;-91
2021/11/19 10:26:34;;;;;;;8.75;6.13;;;;;;;7.99;81.49;101832.34;4975719;28;20030;-91
2021/11/19 10:29:26;;;;;;;8.57;5.90;;;;;;;8.04;81.84;101830.69;4991536;28;20026;-90
2021/11/19 10:31:53;;;;;;;7.80;6.20;;;;;;;8.03;81.19;101817.53;4980814;28;20030;-92
2021/11/19 10:34:21;;;;;;;7.55;5.85;;;;;;;8.05;81.27;101826.34;4973473;28;20041;-90
2021/11/19 10:37:12;;;;;;;9.07;7.07;;;;;;;8.04;81.34;101821.94;4982328;28;20034;-92
2021/11/19 10:39:42;;;;;;;7.40;5.72;;;;;;;8.04;81.29;101825.44;4993310;28;20635;-91
2021/11/19 10:42:42;;;;;;;9.27;6.80;;;;;;;8.03;81.26;101812.28;4986399;28;20493;-92
2021/11/19 10:45:23;;;;;;;7.38;5.60;;;;;;;8.04;81.42;101817.56;4970333;28;20153;-91
2021/11/19 10:48:10;;;;;;;12.55;7.75;;;;;;;8.06;81.52;101805.34;4989144;28;20477;-90
2021/11/19 10:50:57;;;;;;;7.55;5.80;;;;;;;8.06;81.36;101805.34;4996163;28;20481;-91
2021/11/19 10:53:41;;;;;;;7.07;5.78;;;;;;;8.08;81.39;101802.75;4994488;28;20018;-91
2021/11/19 10:56:15;;;;;;;8.40;6.03;;;;;;;8.08;81.47;101810.63;4992380;28;20042;-91
2021/11/19 10:58:59;;;;;;;7.78;5.72;;;;;;;8.11;81.39;101817.69;4992462;28;20027;-90
2021/11/19 11:01:58;;;;;;;6.82;5.72;;;;;;;8.06;81.46;101814.97;4977903;28;20022;-92
2021/11/19 11:04:40;;;;;;;6.18;5.00;;;;;;;8.08;81.51;101810.63;4980286;28;20030;-92
2021/11/19 11:07:22;;;;;;;6.40;5.10;;;;;;;8.08;81.55;101803.63;4994408;28;20034;-91
2021/11/19 11:10:14;;;;;;;6.75;5.68;;;;;;;8.11;81.68;101812.44;4995559;28;20050;-92
2021/11/19 11:12:46;;;;;;;6.40;5.40;;;;;;;8.12;81.57;101807.22;4983800;28;20031;-92
2021/11/19 11:15:18;;;;;;;7.43;5.40;;;;;;;8.08;81.57;101795.75;4991887;28;20062;-92
2021/11/19 11:17:55;;;;;;;6.18;5.05;;;;;;;8.13;81.59;101797.59;4983590;28;20029;-92
2021/11/19 11:20:28;;;;;;;7.07;5.07;;;;;;;8.12;81.43;101790.56;4989367;28;20036;-92
2021/11/19 11:22:58;;;;;;;6.43;5.05;;;;;;;8.09;81.59;101781.78;4966488;28;20032;-92
2021/11/19 11:25:42;;;;;;;5.38;4.80;;;;;;;8.06;81.76;101786.97;4975221;28;20029;-92
2021/11/19 11:28:20;;;;;;;6.25;4.70;;;;;;;8.16;81.56;101789.75;4989923;28;20077;-93
2021/11/19 11:30:55;;;;;;;7.78;5.32;;;;;;;8.10;81.55;101785.25;4975338;28;20033;-92
2021/11/19 11:33:28;;;;;;;6.43;4.88;;;;;;;8.13;81.33;101776.56;4978035;28;20062;-92
2021/11/19 11:36:08;;;;;;;6.20;4.90;;;;;;;8.14;81.75;101784.47;4979251;28;20023;-92
2021/11/19 11:39:02;;;;;;;6.43;4.68;;;;;;;8.16;81.68;101788.03;4967246;28;20050;-92
2021/11/19 11:42:06;;;;;;;4.55;3.92;;;;;;;8.13;81.76;101777.44;5006396;28;20022;-92
2021/11/19 11:44:43;;;;;;;5.65;4.28;;;;;;;8.14;81.70;101779.22;4990685;28;20042;-92
2021/11/19 11:47:30;;;;;;;5.53;4.18;;;;;;;8.18;81.68;101788.94;4994574;28;20030;-93
2021/11/19 11:49:59;;;;;;;5.47;4.60;;;;;;;8.18;81.77;101785.44;4995651;28;20018;-93
2021/11/19 11:52:45;;;;;;;7.93;4.93;;;;;;;8.16;81.72;101793.28;4981779;28;20044;-93
2021/11/19 11:55:26;;;;;;;4.80;4.10;;;;;;;8.20;81.76;101765.28;4994046;28;20034;-92
2021/11/19 11:58:16;;;;;;;5.28;4.53;;;;;;;8.19;81.88;101787.19;4975323;28;20027;-92
2021/11/19 12:01:02;;;;;;;5.10;4.53;;;;;;;8.21;81.92;101774.97;4994766;28;20026;-92
2021/11/19 12:03:46;;;;;;;5.68;4.35;;;;;;;8.18;81.69;101775.81;4978549;28;20041;-92
2021/11/19 12:06:19;;;;;;;5.97;4.60;;;;;;;8.20;81.68;101778.44;4970484;28;20830;-92
2021/11/19 12:08:53;;;;;;;5.05;4.55;;;;;;;8.17;81.65;101773.16;4986992;28;20377;-92
2021/11/19 12:11:39;;;;;;;6.25;4.53;;;;;;;8.24;82.14;101779.41;4989219;28;20027;-92
2021/11/19 12:14:19;;;;;;;4.38;3.80;;;;;;;8.19;81.88;101771.41;4989238;28;20030;-92
2021/11/19 12:16:53;;;;;;;4.47;4.07;;;;;;;8.24;81.76;101780.28;4977644;28;20022;-92
2021/11/19 12:19:40;;;;;;;5.55;4.30;;;;;;;8.25;82.00;101775.91;4990064;28;20048;-92
2021/11/19 12:22:18;;;;;;;5.78;4.18;;;;;;;8.21;81.84;101781.09;4991220;28;20117;-92
2021/11/19 12:25:06;;;;;;;5.15;3.80;;;;;;;8.22;81.97;101776.75;4980045;28;20030;-91
2021/11/19 12:27:46;;;;;;;5.32;4.35;;;;;;;8.24;81.65;101777.66;4990390;28;20022;-92
2021/11/19 12:30:17;;;;;;;4.38;3.85;;;;;;;8.27;81.87;101780.31;4976927;28;20027;-92
2021/11/19 12:32:53;;;;;;;4.88;4.38;;;;;;;8.21;81.74;101767.09;4992841;28;20632;-92
2021/11/19 12:35:32;;;;;;;6.47;4.53;;;;;;;8.27;81.88;101777.69;4986416;28;20094;-92
2021/11/19 12:38:02;;;;;;;5.15;3.97;;;;;;;8.28;81.90;101775.97;4986880;28;20100;-92
2021/11/19 12:40:28;;;;;;;4.72;4.00;;;;;;;8.24;81.82;101769.78;5009538;28;20050;-93
2021/11/19 12:43:19;;;;;;;6.23;4.73;;;;;;;8.28;82.08;101787.38;4988259;28;20472;-92
2021/11/19 12:45:49;;;;;;;5.03;4.15;;;;;;;8.27;81.85;101777.69;4979138;28;20274;-92
2021/11/19 12:48:28;;;;;;;4.05;3.03;;;;;;;8.27;82.02;101776.81;4980741;28;20063;-93
2021/11/19 12:51:09;;;;;;;5.25;3.75;;;;;;;8.19;82.00;101760.91;4980343;28;20161;-91
2021/11/19 12:54:03;;;;;;;4.25;3.58;;;;;;;8.27;82.04;101768.94;4993328;28;20029;-92
2021/11/19 12:56:44;;;;;;;6.30;4.07;;;;;;;8.32;82.08;101778.69;4993404;28;20072;-91